Terminal Aerodrome Forecast
Issued by NWS

Home | Current Version | Previous Version | Text Only | Print | Product List | Glossary On
Versions: 1 2 3 4 5 6 7 8 9 10 11 12 13 14 15
000
FTUS43 KICT 020914 AAA
TAFCNU
TAF AMD
KCNU 020914Z 0209/0306 03006KT P6SM BKN250
     FM021030 03006KT P6SM FEW009 SCT015 BKN250
     FM021900 03009KT P6SM VCSH SCT025 BKN060=

USA.gov is the U.S. government's official web portal to all federal, state and local government web resources and services.